sensor_id;sensor_type;location;lat;lon;timestamp;P1;durP1;ratioP1;P2;durP2;ratioP2
12878;SDS011;20617;49.476;10.986;2023-01-23T10:40:04;13.93;;;9.52;;
12878;SDS011;20617;49.476;10.986;2023-01-23T10:42:14;15.68;;;10.82;;
12878;SDS011;20617;49.476;10.986;2023-01-23T10:44:24;14.75;;;10.25;;
12878;SDS011;20617;49.476;10.986;2023-01-23T10:46:29;13.48;;;9.57;;
12878;SDS011;20617;49.476;10.986;2023-01-23T10:48:39;13.18;;;9.30;;
12878;SDS011;20617;49.476;10.986;2023-01-23T10:50:46;13.00;;;9.52;;
12878;SDS011;20617;49.476;10.986;2023-01-23T10:52:52;14.27;;;9.38;;
12878;SDS011;20617;49.476;10.986;2023-01-23T10:57:36;14.43;;;9.63;;
12878;SDS011;20617;49.476;10.986;2023-01-23T10:59:51;13.52;;;9.45;;
12878;SDS011;20617;49.476;10.986;2023-01-23T11:04:23;13.02;;;8.55;;
12878;SDS011;20617;49.476;10.986;2023-01-23T11:06:30;15.18;;;10.48;;
12878;SDS011;20617;49.476;10.986;2023-01-23T11:08:35;13.23;;;9.63;;
12878;SDS011;20617;49.476;10.986;2023-01-23T11:10:44;14.02;;;9.93;;
12878;SDS011;20617;49.476;10.986;2023-01-23T11:12:49;15.82;;;11.30;;
12878;SDS011;20617;49.476;10.986;2023-01-23T11:15:10;16.95;;;11.07;;
12878;SDS011;20617;49.476;10.986;2023-01-23T11:17:20;16.60;;;11.57;;
12878;SDS011;20617;49.476;10.986;2023-01-23T11:19:27;17.95;;;11.90;;
12878;SDS011;20617;49.476;10.986;2023-01-23T11:21:36;15.52;;;10.43;;
12878;SDS011;20617;49.476;10.986;2023-01-23T11:24:06;14.65;;;10.80;;
12878;SDS011;20617;49.476;10.986;2023-01-23T11:28:45;16.08;;;10.40;;
12878;SDS011;20617;49.476;10.986;2023-01-23T11:30:56;17.15;;;12.27;;
12878;SDS011;20617;49.476;10.986;2023-01-23T11:33:17;16.83;;;10.95;;
12878;SDS011;20617;49.476;10.986;2023-01-23T11:38:03;16.90;;;11.88;;
12878;SDS011;20617;49.476;10.986;2023-01-23T11:40:11;20.10;;;12.05;;
12878;SDS011;20617;49.476;10.986;2023-01-23T11:42:22;19.80;;;11.50;;
12878;SDS011;20617;49.476;10.986;2023-01-23T11:44:30;19.92;;;11.95;;
12878;SDS011;20617;49.476;10.986;2023-01-23T11:46:51;18.45;;;12.60;;
12878;SDS011;20617;49.476;10.986;2023-01-23T11:49:12;22.50;;;12.45;;
12878;SDS011;20617;49.476;10.986;2023-01-23T11:51:29;17.75;;;12.23;;
12878;SDS011;20617;49.476;10.986;2023-01-23T11:53:41;19.63;;;12.48;;
12878;SDS011;20617;49.476;10.986;2023-01-23T11:56:09;18.23;;;12.18;;
12878;SDS011;20617;49.476;10.986;2023-01-23T11:58:42;18.15;;;11.82;;
12878;SDS011;20617;49.476;10.986;2023-01-23T12:01:06;18.00;;;12.13;;
12878;SDS011;20617;49.476;10.986;2023-01-23T12:06:00;18.85;;;12.30;;
12878;SDS011;20617;49.476;10.986;2023-01-23T12:08:38;19.80;;;11.02;;
12878;SDS011;20617;49.476;10.986;2023-01-23T12:10:53;18.33;;;11.82;;
12878;SDS011;20617;49.476;10.986;2023-01-23T12:13:17;16.08;;;11.52;;
12878;SDS011;20617;49.476;10.986;2023-01-23T12:15:41;16.00;;;10.65;;
12878;SDS011;20617;49.476;10.986;2023-01-23T12:17:52;17.45;;;11.02;;
12878;SDS011;20617;49.476;10.986;2023-01-23T12:20:09;18.60;;;11.40;;
12878;SDS011;20617;49.476;10.986;2023-01-23T12:22:29;17.20;;;11.52;;
12878;SDS011;20617;49.476;10.986;2023-01-23T12:24:57;16.50;;;10.73;;
12878;SDS011;20617;49.476;10.986;2023-01-23T12:27:15;22.30;;;11.25;;
12878;SDS011;20617;49.476;10.986;2023-01-23T12:29:35;18.10;;;11.55;;
12878;SDS011;20617;49.476;10.986;2023-01-23T12:32:01;16.85;;;12.15;;
12878;SDS011;20617;49.476;10.986;2023-01-23T12:34:21;19.58;;;11.93;;
12878;SDS011;20617;49.476;10.986;2023-01-23T12:36:37;15.70;;;11.80;;
12878;SDS011;20617;49.476;10.986;2023-01-23T12:39:17;19.23;;;11.68;;
12878;SDS011;20617;49.476;10.986;2023-01-23T12:41:35;16.73;;;12.02;;
12878;SDS011;20617;49.476;10.986;2023-01-23T12:43:46;16.77;;;12.65;;
12878;SDS011;20617;49.476;10.986;2023-01-23T12:45:59;16.83;;;11.48;;
12878;SDS011;20617;49.476;10.986;2023-01-23T12:48:11;20.48;;;12.40;;
12878;SDS011;20617;49.476;10.986;2023-01-23T12:50:20;16.35;;;11.30;;
12878;SDS011;20617;49.476;10.986;2023-01-23T12:52:33;15.95;;;11.05;;
12878;SDS011;20617;49.476;10.986;2023-01-23T12:54:45;19.20;;;11.60;;
12878;SDS011;20617;49.476;10.986;2023-01-23T12:56:54;18.42;;;12.10;;
12878;SDS011;20617;49.476;10.986;2023-01-23T12:59:01;15.75;;;11.05;;
12878;SDS011;20617;49.476;10.986;2023-01-23T13:01:19;15.48;;;10.82;;
12878;SDS011;20617;49.476;10.986;2023-01-23T13:03:42;23.85;;;15.77;;
12878;SDS011;20617;49.476;10.986;2023-01-23T13:06:01;16.95;;;11.60;;
12878;SDS011;20617;49.476;10.986;2023-01-23T13:08:15;16.45;;;11.05;;
12878;SDS011;20617;49.476;10.986;2023-01-23T13:10:32;14.43;;;10.25;;
12878;SDS011;20617;49.476;10.986;2023-01-23T13:13:03;15.15;;;10.68;;
12878;SDS011;20617;49.476;10.986;2023-01-23T13:15:19;14.52;;;10.68;;
12878;SDS011;20617;49.476;10.986;2023-01-23T13:17:42;15.20;;;10.23;;
12878;SDS011;20617;49.476;10.986;2023-01-23T13:19:53;18.33;;;12.63;;
12878;SDS011;20617;49.476;10.986;2023-01-23T13:22:34;16.30;;;11.23;;
12878;SDS011;20617;49.476;10.986;2023-01-23T13:24:42;16.35;;;11.38;;
12878;SDS011;20617;49.476;10.986;2023-01-23T13:27:03;17.58;;;10.98;;
12878;SDS011;20617;49.476;10.986;2023-01-23T13:29:56;16.45;;;10.85;;
12878;SDS011;20617;49.476;10.986;2023-01-23T13:34:35;18.15;;;10.63;;
12878;SDS011;20617;49.476;10.986;2023-01-23T13:36:45;14.68;;;10.52;;
12878;SDS011;20617;49.476;10.986;2023-01-23T13:39:02;15.07;;;10.55;;
12878;SDS011;20617;49.476;10.986;2023-01-23T13:41:26;15.07;;;10.32;;
12878;SDS011;20617;49.476;10.986;2023-01-23T13:43:40;16.50;;;11.25;;
12878;SDS011;20617;49.476;10.986;2023-01-23T13:45:45;15.80;;;10.52;;
12878;SDS011;20617;49.476;10.986;2023-01-23T13:50:58;16.40;;;11.50;;
12878;SDS011;20617;49.476;10.986;2023-01-23T13:53:27;15.45;;;10.88;;
12878;SDS011;20617;49.476;10.986;2023-01-23T13:55:58;17.70;;;12.07;;
12878;SDS011;20617;49.476;10.986;2023-01-23T13:58:30;17.17;;;11.00;;
12878;SDS011;20617;49.476;10.986;2023-01-23T14:00:53;14.32;;;9.95;;
12878;SDS011;20617;49.476;10.986;2023-01-23T14:03:27;21.50;;;10.93;;
12878;SDS011;20617;49.476;10.986;2023-01-23T14:11:43;14.70;;;9.02;;
12878;SDS011;20617;49.476;10.986;2023-01-23T14:14:04;13.93;;;9.38;;
12878;SDS011;20617;49.476;10.986;2023-01-23T14:16:36;16.42;;;10.50;;
12878;SDS011;20617;49.476;10.986;2023-01-23T14:18:56;13.73;;;10.27;;
12878;SDS011;20617;49.476;10.986;2023-01-23T14:21:17;14.15;;;10.30;;
12878;SDS011;20617;49.476;10.986;2023-01-23T14:23:34;12.00;;;9.40;;
12878;SDS011;20617;49.476;10.986;2023-01-23T14:25:41;17.25;;;9.88;;
12878;SDS011;20617;49.476;10.986;2023-01-23T14:27:49;16.60;;;11.77;;
12878;SDS011;20617;49.476;10.986;2023-01-23T14:30:12;15.35;;;10.82;;
12878;SDS011;20617;49.476;10.986;2023-01-23T14:32:21;16.92;;;10.25;;
12878;SDS011;20617;49.476;10.986;2023-01-23T14:34:26;14.02;;;9.95;;
12878;SDS011;20617;49.476;10.986;2023-01-23T14:38:38;15.07;;;9.55;;
12878;SDS011;20617;49.476;10.986;2023-01-23T14:40:42;15.40;;;9.82;;
12878;SDS011;20617;49.476;10.986;2023-01-23T14:42:55;13.32;;;9.45;;
12878;SDS011;20617;49.476;10.986;2023-01-23T14:45:03;15.50;;;10.20;;
12878;SDS011;20617;49.476;10.986;2023-01-23T14:47:10;16.17;;;9.57;;
12878;SDS011;20617;49.476;10.986;2023-01-23T14:49:21;14.35;;;9.07;;
12878;SDS011;20617;49.476;10.986;2023-01-23T14:51:30;15.18;;;10.52;;
12878;SDS011;20617;49.476;10.986;2023-01-23T14:53:38;12.38;;;9.25;;
12878;SDS011;20617;49.476;10.986;2023-01-23T14:55:45;15.63;;;10.35;;
12878;SDS011;20617;49.476;10.986;2023-01-23T14:57:56;13.02;;;9.60;;
12878;SDS011;20617;49.476;10.986;2023-01-23T15:00:03;14.05;;;9.68;;
12878;SDS011;20617;49.476;10.986;2023-01-23T15:02:22;12.07;;;9.02;;
12878;SDS011;20617;49.476;10.986;2023-01-23T15:04:31;13.75;;;9.35;;
12878;SDS011;20617;49.476;10.986;2023-01-23T15:06:36;16.15;;;9.23;;
12878;SDS011;20617;49.476;10.986;2023-01-23T15:08:41;13.10;;;9.60;;
12878;SDS011;20617;49.476;10.986;2023-01-23T15:10:47;15.40;;;9.55;;
12878;SDS011;20617;49.476;10.986;2023-01-23T15:12:56;14.32;;;10.07;;
12878;SDS011;20617;49.476;10.986;2023-01-23T15:15:04;11.63;;;8.57;;
12878;SDS011;20617;49.476;10.986;2023-01-23T15:17:21;14.20;;;9.55;;
12878;SDS011;20617;49.476;10.986;2023-01-23T15:19:26;16.70;;;10.10;;
12878;SDS011;20617;49.476;10.986;2023-01-23T15:21:36;14.23;;;10.55;;
12878;SDS011;20617;49.476;10.986;2023-01-23T15:23:42;14.40;;;10.68;;
12878;SDS011;20617;49.476;10.986;2023-01-23T15:28:39;13.77;;;10.70;;
12878;SDS011;20617;49.476;10.986;2023-01-23T15:30:45;13.65;;;9.80;;
12878;SDS011;20617;49.476;10.986;2023-01-23T15:32:51;12.65;;;10.05;;
12878;SDS011;20617;49.476;10.986;2023-01-23T15:34:55;16.55;;;10.48;;
12878;SDS011;20617;49.476;10.986;2023-01-23T15:37:02;14.95;;;10.90;;
12878;SDS011;20617;49.476;10.986;2023-01-23T15:39:12;15.15;;;10.75;;
12878;SDS011;20617;49.476;10.986;2023-01-23T15:41:35;14.82;;;11.13;;
12878;SDS011;20617;49.476;10.986;2023-01-23T15:43:44;15.23;;;10.93;;
12878;SDS011;20617;49.476;10.986;2023-01-23T15:45:49;14.32;;;10.00;;
12878;SDS011;20617;49.476;10.986;2023-01-23T15:47:54;16.40;;;11.68;;
12878;SDS011;20617;49.476;10.986;2023-01-23T15:49:59;16.65;;;11.70;;
12878;SDS011;20617;49.476;10.986;2023-01-23T15:52:13;15.38;;;10.90;;
12878;SDS011;20617;49.476;10.986;2023-01-23T15:54:22;16.50;;;11.52;;
12878;SDS011;20617;49.476;10.986;2023-01-23T15:56:32;17.35;;;11.40;;
12878;SDS011;20617;49.476;10.986;2023-01-23T15:58:38;16.30;;;11.40;;
12878;SDS011;20617;49.476;10.986;2023-01-23T16:00:45;18.52;;;12.32;;
12878;SDS011;20617;49.476;10.986;2023-01-23T16:02:50;16.45;;;11.80;;
12878;SDS011;20617;49.476;10.986;2023-01-23T16:04:58;17.50;;;11.75;;
12878;SDS011;20617;49.476;10.986;2023-01-23T16:07:04;15.75;;;11.60;;
12878;SDS011;20617;49.476;10.986;2023-01-23T16:09:17;17.25;;;11.25;;
12878;SDS011;20617;49.476;10.986;2023-01-23T16:13:35;18.10;;;12.02;;
12878;SDS011;20617;49.476;10.986;2023-01-23T16:17:47;19.00;;;13.10;;
12878;SDS011;20617;49.476;10.986;2023-01-23T16:19:53;16.88;;;11.88;;
12878;SDS011;20617;49.476;10.986;2023-01-23T16:21:58;20.35;;;14.77;;
12878;SDS011;20617;49.476;10.986;2023-01-23T16:24:06;19.08;;;13.30;;
12878;SDS011;20617;49.476;10.986;2023-01-23T16:26:19;18.13;;;12.80;;
12878;SDS011;20617;49.476;10.986;2023-01-23T16:28:26;20.17;;;13.60;;
12878;SDS011;20617;49.476;10.986;2023-01-23T16:30:33;21.80;;;14.15;;
12878;SDS011;20617;49.476;10.986;2023-01-23T16:32:37;26.67;;;16.38;;
12878;SDS011;20617;49.476;10.986;2023-01-23T16:34:45;21.88;;;14.38;;
12878;SDS011;20617;49.476;10.986;2023-01-23T16:36:52;18.67;;;13.18;;
12878;SDS011;20617;49.476;10.986;2023-01-23T16:38:59;21.15;;;14.18;;
12878;SDS011;20617;49.476;10.986;2023-01-23T16:41:07;22.88;;;16.38;;
12878;SDS011;20617;49.476;10.986;2023-01-23T16:43:12;24.63;;;18.65;;
12878;SDS011;20617;49.476;10.986;2023-01-23T16:45:19;20.45;;;13.80;;
12878;SDS011;20617;49.476;10.986;2023-01-23T16:47:25;32.47;;;20.48;;
12878;SDS011;20617;49.476;10.986;2023-01-23T16:49:31;31.08;;;23.15;;
12878;SDS011;20617;49.476;10.986;2023-01-23T16:51:56;24.35;;;16.95;;
12878;SDS011;20617;49.476;10.986;2023-01-23T16:54:03;24.73;;;16.38;;
12878;SDS011;20617;49.476;10.986;2023-01-23T16:58:25;24.50;;;18.95;;
12878;SDS011;20617;49.476;10.986;2023-01-23T17:00:32;24.73;;;18.23;;
12878;SDS011;20617;49.476;10.986;2023-01-23T17:02:38;22.35;;;15.77;;
12878;SDS011;20617;49.476;10.986;2023-01-23T17:04:43;24.13;;;16.80;;
12878;SDS011;20617;49.476;10.986;2023-01-23T17:06:48;20.42;;;15.30;;
12878;SDS011;20617;49.476;10.986;2023-01-23T17:08:56;21.73;;;14.77;;
12878;SDS011;20617;49.476;10.986;2023-01-23T17:11:01;22.08;;;15.02;;
12878;SDS011;20617;49.476;10.986;2023-01-23T17:13:08;21.10;;;15.25;;
12878;SDS011;20617;49.476;10.986;2023-01-23T17:15:18;21.50;;;15.80;;
12878;SDS011;20617;49.476;10.986;2023-01-23T17:17:28;19.98;;;14.13;;
12878;SDS011;20617;49.476;10.986;2023-01-23T17:19:35;24.38;;;15.75;;
12878;SDS011;20617;49.476;10.986;2023-01-23T17:21:43;33.47;;;25.30;;
12878;SDS011;20617;49.476;10.986;2023-01-23T17:23:48;19.50;;;13.25;;
12878;SDS011;20617;49.476;10.986;2023-01-23T17:25:56;20.05;;;14.02;;
12878;SDS011;20617;49.476;10.986;2023-01-23T17:28:02;24.80;;;17.15;;
12878;SDS011;20617;49.476;10.986;2023-01-23T17:30:14;59.85;;;51.03;;
12878;SDS011;20617;49.476;10.986;2023-01-23T17:32:22;21.52;;;15.68;;
12878;SDS011;20617;49.476;10.986;2023-01-23T17:34:32;23.52;;;18.42;;
12878;SDS011;20617;49.476;10.986;2023-01-23T17:36:50;23.25;;;16.48;;
12878;SDS011;20617;49.476;10.986;2023-01-23T17:38:58;21.75;;;14.48;;
12878;SDS011;20617;49.476;10.986;2023-01-23T17:41:07;22.08;;;15.35;;
12878;SDS011;20617;49.476;10.986;2023-01-23T17:43:16;24.40;;;17.95;;
12878;SDS011;20617;49.476;10.986;2023-01-23T17:45:22;23.27;;;16.52;;
12878;SDS011;20617;49.476;10.986;2023-01-23T17:47:29;23.02;;;14.80;;
12878;SDS011;20617;49.476;10.986;2023-01-23T17:49:36;22.88;;;16.38;;
12878;SDS011;20617;49.476;10.986;2023-01-23T17:51:41;21.35;;;15.35;;
12878;SDS011;20617;49.476;10.986;2023-01-23T17:53:46;22.30;;;16.20;;
12878;SDS011;20617;49.476;10.986;2023-01-23T17:55:52;24.95;;;17.63;;
12878;SDS011;20617;49.476;10.986;2023-01-23T17:57:59;23.65;;;17.05;;
12878;SDS011;20617;49.476;10.986;2023-01-23T18:00:05;23.92;;;16.10;;
12878;SDS011;20617;49.476;10.986;2023-01-23T18:02:16;21.55;;;15.38;;
12878;SDS011;20617;49.476;10.986;2023-01-23T18:04:27;21.85;;;15.40;;
12878;SDS011;20617;49.476;10.986;2023-01-23T18:06:32;21.98;;;15.50;;
12878;SDS011;20617;49.476;10.986;2023-01-23T18:08:37;21.80;;;15.73;;
12878;SDS011;20617;49.476;10.986;2023-01-23T18:10:43;22.55;;;16.88;;
12878;SDS011;20617;49.476;10.986;2023-01-23T18:12:52;20.20;;;15.68;;
12878;SDS011;20617;49.476;10.986;2023-01-23T18:15:09;19.67;;;15.27;;
12878;SDS011;20617;49.476;10.986;2023-01-23T18:17:22;20.90;;;16.15;;
12878;SDS011;20617;49.476;10.986;2023-01-23T18:19:36;22.98;;;16.38;;
12878;SDS011;20617;49.476;10.986;2023-01-23T18:21:42;22.08;;;15.25;;
12878;SDS011;20617;49.476;10.986;2023-01-23T18:23:48;21.73;;;16.40;;
12878;SDS011;20617;49.476;10.986;2023-01-23T18:25:54;21.58;;;16.17;;
12878;SDS011;20617;49.476;10.986;2023-01-23T18:28:07;20.15;;;15.30;;
12878;SDS011;20617;49.476;10.986;2023-01-23T18:32:55;28.98;;;20.10;;
12878;SDS011;20617;49.476;10.986;2023-01-23T18:35:12;26.55;;;16.77;;
12878;SDS011;20617;49.476;10.986;2023-01-23T18:37:31;22.48;;;15.52;;
12878;SDS011;20617;49.476;10.986;2023-01-23T18:39:51;24.55;;;17.27;;
12878;SDS011;20617;49.476;10.986;2023-01-23T18:42:11;27.02;;;20.23;;
12878;SDS011;20617;49.476;10.986;2023-01-23T18:44:22;23.23;;;17.33;;
12878;SDS011;20617;49.476;10.986;2023-01-23T18:46:30;22.75;;;16.92;;
12878;SDS011;20617;49.476;10.986;2023-01-23T18:48:35;26.90;;;19.20;;
12878;SDS011;20617;49.476;10.986;2023-01-23T18:50:55;21.08;;;15.98;;
12878;SDS011;20617;49.476;10.986;2023-01-23T18:53:11;24.63;;;17.25;;
12878;SDS011;20617;49.476;10.986;2023-01-23T18:55:28;23.08;;;15.43;;
12878;SDS011;20617;49.476;10.986;2023-01-23T18:57:57;26.67;;;19.15;;
12878;SDS011;20617;49.476;10.986;2023-01-23T19:00:15;23.45;;;16.70;;
12878;SDS011;20617;49.476;10.986;2023-01-23T19:02:28;25.30;;;17.08;;
12878;SDS011;20617;49.476;10.986;2023-01-23T19:04:37;25.67;;;18.23;;
12878;SDS011;20617;49.476;10.986;2023-01-23T19:06:48;38.20;;;25.42;;
12878;SDS011;20617;49.476;10.986;2023-01-23T19:08:53;28.70;;;19.30;;
12878;SDS011;20617;49.476;10.986;2023-01-23T19:10:59;29.88;;;21.30;;
12878;SDS011;20617;49.476;10.986;2023-01-23T19:13:13;27.17;;;19.45;;
12878;SDS011;20617;49.476;10.986;2023-01-23T19:15:26;32.17;;;21.33;;
12878;SDS011;20617;49.476;10.986;2023-01-23T19:17:40;22.52;;;15.80;;
12878;SDS011;20617;49.476;10.986;2023-01-23T19:19:51;27.05;;;17.60;;
12878;SDS011;20617;49.476;10.986;2023-01-23T19:22:07;27.15;;;17.25;;
12878;SDS011;20617;49.476;10.986;2023-01-23T19:24:16;32.30;;;20.77;;
12878;SDS011;20617;49.476;10.986;2023-01-23T19:26:23;28.90;;;19.65;;
12878;SDS011;20617;49.476;10.986;2023-01-23T19:28:30;26.85;;;17.17;;
12878;SDS011;20617;49.476;10.986;2023-01-23T19:30:42;41.35;;;28.58;;
12878;SDS011;20617;49.476;10.986;2023-01-23T19:32:47;25.58;;;17.63;;
12878;SDS011;20617;49.476;10.986;2023-01-23T19:34:52;25.50;;;17.58;;
12878;SDS011;20617;49.476;10.986;2023-01-23T19:37:14;25.30;;;17.42;;
12878;SDS011;20617;49.476;10.986;2023-01-23T19:41:24;25.00;;;17.85;;
12878;SDS011;20617;49.476;10.986;2023-01-23T19:43:31;24.58;;;16.88;;
12878;SDS011;20617;49.476;10.986;2023-01-23T19:45:36;26.17;;;17.05;;
12878;SDS011;20617;49.476;10.986;2023-01-23T19:47:43;23.92;;;16.58;;
12878;SDS011;20617;49.476;10.986;2023-01-23T19:49:49;24.77;;;17.55;;
12878;SDS011;20617;49.476;10.986;2023-01-23T19:51:54;24.55;;;16.13;;
12878;SDS011;20617;49.476;10.986;2023-01-23T19:53:59;26.17;;;18.70;;
12878;SDS011;20617;49.476;10.986;2023-01-23T19:56:07;23.58;;;16.08;;
12878;SDS011;20617;49.476;10.986;2023-01-23T19:58:14;31.05;;;18.40;;
12878;SDS011;20617;49.476;10.986;2023-01-23T20:00:19;32.25;;;21.50;;
12878;SDS011;20617;49.476;10.986;2023-01-23T20:02:24;20.85;;;14.88;;
12878;SDS011;20617;49.476;10.986;2023-01-23T20:04:32;23.00;;;15.77;;
12878;SDS011;20617;49.476;10.986;2023-01-23T20:06:37;23.40;;;15.75;;
12878;SDS011;20617;49.476;10.986;2023-01-23T20:08:42;23.02;;;16.75;;
12878;SDS011;20617;49.476;10.986;2023-01-23T20:10:46;22.40;;;15.43;;
12878;SDS011;20617;49.476;10.986;2023-01-23T20:12:51;23.60;;;15.70;;
12878;SDS011;20617;49.476;10.986;2023-01-23T20:14:57;21.55;;;15.55;;
12878;SDS011;20617;49.476;10.986;2023-01-23T20:17:02;20.75;;;15.13;;
12878;SDS011;20617;49.476;10.986;2023-01-23T20:19:07;19.95;;;14.60;;
12878;SDS011;20617;49.476;10.986;2023-01-23T20:21:19;19.40;;;14.05;;
12878;SDS011;20617;49.476;10.986;2023-01-23T20:23:25;22.98;;;17.05;;
12878;SDS011;20617;49.476;10.986;2023-01-23T20:27:34;20.48;;;13.68;;
12878;SDS011;20617;49.476;10.986;2023-01-23T20:31:44;21.40;;;15.90;;
12878;SDS011;20617;49.476;10.986;2023-01-23T20:33:50;24.27;;;16.27;;
12878;SDS011;20617;49.476;10.986;2023-01-23T20:35:55;21.92;;;15.20;;
12878;SDS011;20617;49.476;10.986;2023-01-23T20:38:02;19.63;;;14.00;;
12878;SDS011;20617;49.476;10.986;2023-01-23T20:40:08;19.75;;;13.88;;
12878;SDS011;20617;49.476;10.986;2023-01-23T20:42:14;21.60;;;15.73;;
12878;SDS011;20617;49.476;10.986;2023-01-23T20:44:19;18.95;;;14.32;;
12878;SDS011;20617;49.476;10.986;2023-01-23T20:46:24;19.90;;;14.43;;
12878;SDS011;20617;49.476;10.986;2023-01-23T20:48:31;18.77;;;13.50;;
12878;SDS011;20617;49.476;10.986;2023-01-23T20:50:37;18.25;;;13.43;;
12878;SDS011;20617;49.476;10.986;2023-01-23T20:52:42;19.00;;;15.00;;
12878;SDS011;20617;49.476;10.986;2023-01-23T20:55:01;18.80;;;13.30;;
12878;SDS011;20617;49.476;10.986;2023-01-23T20:57:07;24.85;;;17.45;;
12878;SDS011;20617;49.476;10.986;2023-01-23T21:01:21;20.80;;;14.18;;
12878;SDS011;20617;49.476;10.986;2023-01-23T21:03:28;23.65;;;16.85;;
12878;SDS011;20617;49.476;10.986;2023-01-23T21:05:33;30.80;;;20.17;;
12878;SDS011;20617;49.476;10.986;2023-01-23T21:07:38;21.80;;;15.57;;
12878;SDS011;20617;49.476;10.986;2023-01-23T21:09:43;23.25;;;15.63;;
12878;SDS011;20617;49.476;10.986;2023-01-23T21:11:51;23.67;;;16.27;;
12878;SDS011;20617;49.476;10.986;2023-01-23T21:13:57;21.25;;;14.48;;
12878;SDS011;20617;49.476;10.986;2023-01-23T21:16:02;19.88;;;13.57;;
12878;SDS011;20617;49.476;10.986;2023-01-23T21:18:09;20.15;;;14.23;;
12878;SDS011;20617;49.476;10.986;2023-01-23T21:22:19;19.45;;;13.65;;
12878;SDS011;20617;49.476;10.986;2023-01-23T21:24:24;17.55;;;12.73;;
12878;SDS011;20617;49.476;10.986;2023-01-23T21:26:29;19.90;;;14.45;;
12878;SDS011;20617;49.476;10.986;2023-01-23T21:28:37;20.02;;;13.55;;
12878;SDS011;20617;49.476;10.986;2023-01-23T21:30:42;20.75;;;13.98;;
12878;SDS011;20617;49.476;10.986;2023-01-23T21:32:47;21.20;;;13.93;;
12878;SDS011;20617;49.476;10.986;2023-01-23T21:34:51;20.48;;;14.30;;
12878;SDS011;20617;49.476;10.986;2023-01-23T21:36:56;20.35;;;14.30;;
12878;SDS011;20617;49.476;10.986;2023-01-23T21:39:01;19.08;;;13.68;;
12878;SDS011;20617;49.476;10.986;2023-01-23T21:41:10;20.10;;;14.68;;
12878;SDS011;20617;49.476;10.986;2023-01-23T21:43:15;20.42;;;13.95;;
12878;SDS011;20617;49.476;10.986;2023-01-23T21:45:23;21.02;;;13.70;;
12878;SDS011;20617;49.476;10.986;2023-01-23T21:47:28;19.13;;;13.32;;
12878;SDS011;20617;49.476;10.986;2023-01-23T21:49:33;20.70;;;14.95;;
12878;SDS011;20617;49.476;10.986;2023-01-23T21:51:38;19.45;;;14.23;;
12878;SDS011;20617;49.476;10.986;2023-01-23T21:53:43;18.42;;;13.43;;
12878;SDS011;20617;49.476;10.986;2023-01-23T21:55:50;21.42;;;14.65;;
12878;SDS011;20617;49.476;10.986;2023-01-23T21:57:55;19.35;;;13.65;;
12878;SDS011;20617;49.476;10.986;2023-01-23T22:00:00;18.08;;;13.57;;
12878;SDS011;20617;49.476;10.986;2023-01-23T22:02:20;20.90;;;14.50;;
12878;SDS011;20617;49.476;10.986;2023-01-23T22:04:25;20.35;;;13.95;;
12878;SDS011;20617;49.476;10.986;2023-01-23T22:06:30;19.55;;;14.02;;
12878;SDS011;20617;49.476;10.986;2023-01-23T22:08:35;18.70;;;13.98;;
12878;SDS011;20617;49.476;10.986;2023-01-23T22:10:40;20.27;;;12.95;;
12878;SDS011;20617;49.476;10.986;2023-01-23T22:12:45;20.98;;;15.13;;
12878;SDS011;20617;49.476;10.986;2023-01-23T22:14:50;20.13;;;14.93;;
12878;SDS011;20617;49.476;10.986;2023-01-23T22:16:55;17.02;;;12.40;;
12878;SDS011;20617;49.476;10.986;2023-01-23T22:19:03;19.02;;;14.07;;
12878;SDS011;20617;49.476;10.986;2023-01-23T22:21:08;20.55;;;13.85;;
12878;SDS011;20617;49.476;10.986;2023-01-23T22:25:18;18.25;;;12.98;;
12878;SDS011;20617;49.476;10.986;2023-01-23T22:27:23;18.95;;;12.95;;
12878;SDS011;20617;49.476;10.986;2023-01-23T22:29:28;17.35;;;12.13;;
12878;SDS011;20617;49.476;10.986;2023-01-23T22:31:33;19.20;;;14.18;;
12878;SDS011;20617;49.476;10.986;2023-01-23T22:33:39;16.52;;;11.98;;
12878;SDS011;20617;49.476;10.986;2023-01-23T22:35:47;18.35;;;13.40;;
12878;SDS011;20617;49.476;10.986;2023-01-23T22:37:52;18.77;;;13.90;;
12878;SDS011;20617;49.476;10.986;2023-01-23T22:39:57;18.75;;;13.23;;
12878;SDS011;20617;49.476;10.986;2023-01-23T22:42:02;17.77;;;13.55;;
12878;SDS011;20617;49.476;10.986;2023-01-23T22:46:13;18.02;;;12.98;;
12878;SDS011;20617;49.476;10.986;2023-01-23T22:48:19;19.08;;;13.52;;
12878;SDS011;20617;49.476;10.986;2023-01-23T22:50:24;18.58;;;13.27;;
12878;SDS011;20617;49.476;10.986;2023-01-23T22:52:32;18.50;;;13.18;;
12878;SDS011;20617;49.476;10.986;2023-01-23T22:54:37;20.33;;;13.20;;
12878;SDS011;20617;49.476;10.986;2023-01-23T22:56:42;21.23;;;14.23;;
12878;SDS011;20617;49.476;10.986;2023-01-23T22:58:47;19.95;;;13.65;;
12878;SDS011;20617;49.476;10.986;2023-01-23T23:00:54;21.95;;;14.05;;
12878;SDS011;20617;49.476;10.986;2023-01-23T23:02:59;18.85;;;12.75;;
12878;SDS011;20617;49.476;10.986;2023-01-23T23:05:05;18.38;;;13.27;;
12878;SDS011;20617;49.476;10.986;2023-01-23T23:07:11;21.38;;;13.02;;
12878;SDS011;20617;49.476;10.986;2023-01-23T23:09:20;20.67;;;13.57;;
12878;SDS011;20617;49.476;10.986;2023-01-23T23:11:25;18.77;;;13.20;;
12878;SDS011;20617;49.476;10.986;2023-01-23T23:13:32;19.08;;;13.95;;
12878;SDS011;20617;49.476;10.986;2023-01-23T23:15:39;21.23;;;13.57;;
12878;SDS011;20617;49.476;10.986;2023-01-23T23:17:44;20.60;;;14.68;;
12878;SDS011;20617;49.476;10.986;2023-01-23T23:19:49;19.42;;;13.63;;
12878;SDS011;20617;49.476;10.986;2023-01-23T23:23:58;20.05;;;13.95;;
12878;SDS011;20617;49.476;10.986;2023-01-23T23:26:07;20.20;;;13.90;;
12878;SDS011;20617;49.476;10.986;2023-01-23T23:28:13;19.23;;;13.18;;
12878;SDS011;20617;49.476;10.986;2023-01-23T23:30:18;19.45;;;13.57;;
12878;SDS011;20617;49.476;10.986;2023-01-23T23:32:23;20.17;;;13.60;;
12878;SDS011;20617;49.476;10.986;2023-01-23T23:34:28;18.98;;;13.45;;
12878;SDS011;20617;49.476;10.986;2023-01-23T23:36:35;19.05;;;13.40;;
12878;SDS011;20617;49.476;10.986;2023-01-23T23:38:40;19.65;;;13.23;;
12878;SDS011;20617;49.476;10.986;2023-01-23T23:40:51;17.88;;;13.60;;
12878;SDS011;20617;49.476;10.986;2023-01-23T23:43:00;18.80;;;12.88;;
12878;SDS011;20617;49.476;10.986;2023-01-23T23:45:05;17.08;;;12.70;;
12878;SDS011;20617;49.476;10.986;2023-01-23T23:47:11;17.50;;;12.63;;
12878;SDS011;20617;49.476;10.986;2023-01-23T23:49:16;17.83;;;12.98;;
12878;SDS011;20617;49.476;10.986;2023-01-23T23:51:21;20.38;;;12.95;;
12878;SDS011;20617;49.476;10.986;2023-01-23T23:53:27;17.73;;;12.18;;
12878;SDS011;20617;49.476;10.986;2023-01-23T23:55:32;18.83;;;13.48;;
12878;SDS011;20617;49.476;10.986;2023-01-23T23:57:37;18.13;;;13.07;;
12878;SDS011;20617;49.476;10.986;2023-01-23T23:59:44;16.88;;;11.85;;
